Orbital elements of COSMOS 1275 DEB
| Launched | 3 June 1981 |
| Flight ended | – |
| Launch site | Plesetsk Missile and Space Complex, Russia |
| Owner | Commonwealth of Independent States (former USSR) |
| NORAD ID | 12654 |
| Date fetched |
Epoch osculation |
Inc. [°] |
Ecc. | RA asc node [hr] |
Arg Peri. [°] |
Mean anom [°] |
Mean motion [rev/day] |
Abs. mag |
| Date fetched |
Epoch osculation |
Inc. [°] |
Ecc. | RA asc node [hr] |
Arg Peri. [°] |
Mean anom [°] |
Mean motion [rev/day] |
Abs. mag |
| 2026 May 04 17:57 | 2026 Apr 30 11:31:21 | 82.9807 | 0.00458 | 17.1442 | 38.4107 | 30.8775 | 14.08968 | – |
| 2026 May 03 17:57 | 2026 Apr 30 11:31:21 | 82.9807 | 0.00458 | 17.1442 | 38.4107 | 30.8775 | 14.08968 | – |
| 2026 May 02 17:57 | 2026 Apr 30 11:31:21 | 82.9807 | 0.00458 | 17.1442 | 38.4107 | 30.8775 | 14.08968 | – |
| 2026 May 01 17:56 | 2026 Apr 30 11:31:21 | 82.9807 | 0.00458 | 17.1442 | 38.4107 | 30.8775 | 14.08968 | – |
| 2026 Apr 30 17:56 | 2026 Apr 30 11:31:21 | 82.9807 | 0.00458 | 17.1442 | 38.4107 | 30.8775 | 14.08968 | – |
| 2026 Apr 29 17:57 | 2026 Apr 24 12:21:18 | 82.9800 | 0.00464 | 17.4544 | 55.9594 | 30.8775 | 14.08968 | – |
| 2026 Apr 28 17:56 | 2026 Apr 24 12:21:18 | 82.9800 | 0.00464 | 17.4544 | 55.9594 | 30.8775 | 14.08968 | – |
| 2026 Apr 27 17:58 | 2026 Apr 24 12:21:18 | 82.9800 | 0.00464 | 17.4544 | 55.9594 | 30.8775 | 14.08968 | – |
| 2026 Apr 26 17:58 | 2026 Apr 24 12:21:18 | 82.9800 | 0.00464 | 17.4544 | 55.9594 | 30.8775 | 14.08968 | – |
| 2026 Apr 25 17:58 | 2026 Apr 24 12:21:18 | 82.9800 | 0.00464 | 17.4544 | 55.9594 | 30.8775 | 14.08968 | – |
| 2026 Apr 24 17:59 | 2026 Apr 24 12:21:18 | 82.9800 | 0.00464 | 17.4544 | 55.9594 | 30.8775 | 14.08968 | – |
| 2026 Apr 23 17:57 | 2026 Apr 19 05:02:33 | 82.9789 | 0.00467 | 17.7303 | 71.2863 | 30.8775 | 14.08968 | – |
| 2026 Apr 22 17:57 | 2026 Apr 19 05:02:33 | 82.9789 | 0.00467 | 17.7303 | 71.2863 | 30.8775 | 14.08968 | – |
| 2026 Apr 21 17:57 | 2026 Apr 19 05:02:33 | 82.9789 | 0.00467 | 17.7303 | 71.2863 | 30.8775 | 14.08968 | – |
| 2026 Apr 20 17:57 | 2026 Apr 19 05:02:33 | 82.9789 | 0.00467 | 17.7303 | 71.2863 | 30.8775 | 14.08968 | – |
| 2026 Apr 19 17:58 | 2026 Apr 19 05:02:33 | 82.9789 | 0.00467 | 17.7303 | 71.2863 | 30.8775 | 14.08968 | – |
| 2026 Apr 18 17:56 | 2026 Apr 13 05:52:07 | 82.9783 | 0.00467 | 18.0405 | 88.3493 | 30.8775 | 14.08968 | – |
| 2026 Apr 16 17:57 | 2026 Apr 13 05:52:07 | 82.9783 | 0.00467 | 18.0405 | 88.3493 | 30.8775 | 14.08968 | – |
| 2026 Apr 14 17:57 | 2026 Apr 13 05:52:07 | 82.9783 | 0.00467 | 18.0405 | 88.3493 | 30.8775 | 14.08968 | – |
| 2026 Apr 13 17:57 | 2026 Apr 13 05:52:07 | 82.9783 | 0.00467 | 18.0405 | 88.3493 | 30.8775 | 14.08968 | – |
| 2026 Apr 12 17:57 | 2026 Apr 08 10:58:24 | 82.9778 | 0.00465 | 18.2896 | 102.0826 | 30.8775 | 14.08968 | – |
| 2026 Apr 11 17:57 | 2026 Apr 08 10:58:24 | 82.9778 | 0.00465 | 18.2896 | 102.0826 | 30.8775 | 14.08968 | – |
| 2026 Apr 10 17:58 | 2026 Apr 08 10:58:24 | 82.9778 | 0.00465 | 18.2896 | 102.0826 | 30.8775 | 14.08968 | – |
| 2026 Apr 09 18:01 | 2026 Apr 08 10:58:24 | 82.9778 | 0.00465 | 18.2896 | 102.0826 | 30.8775 | 14.08968 | – |
| 2026 Apr 08 17:57 | 2026 Apr 08 10:58:24 | 82.9778 | 0.00465 | 18.2896 | 102.0826 | 30.8775 | 14.08968 | – |
| 2026 Apr 07 17:57 | 2026 Apr 01 22:36:46 | 82.9772 | 0.00460 | 18.6285 | 120.9059 | 30.8775 | 14.08968 | – |